Pagina principale
METAR-TAF:

METAR-TAF

Aeroporti :

Anchorage, Alaska, Stati Uniti

latitudine: 61-13N, longitudine: 149-51W, altezza: 42 m

Osservazione

Il bollettino è stato emesso 39 minuti fa, alle 05:53 UTC
Vento 10 kt da sud con raffiche fino a 20 kt
Temperature 12°C
Umidità 54%
Pressione 1003 hPa
Visibilità: 16.1 km
Nuvoloso ad un'altezza di 6500 ft

METAR: PAMR 230553Z 19010G20KT 10SM BKN065 12/03 A2962 RMK AO2 SLP031 T01170033 10150 20117 53005

Ora: 22:32 (06:32 UTC)


TAF: mancante

Osservazioni e previsioni meteorologiche di più di 4000 aeroporti (messaggi METAR e TAF).

Le stazioni disponibili sono rappresentate dai dischi gialli e rossi sulla carta.

Puntare il mouse per vedere il nome della stazione.

Clicca sopra per visualizzare le osservazioni e previsioni meteorologiche.

Per cambiare la mappa : fare clic sui pulsanti verdi con una croce nera per ingrandire, il pulsante verde con un trattino per diminuire, o sulla freccia verde per le mappe adiacenti.


METAR-TAF: